Time;durP1;ratioP1;P1;durP2;ratioP2;P2;SDS_P1;SDS_P2;PMS_P1;PMS_P2;Temp;Humidity;BMP_temperature;BMP_pressure;BME280_temperature;BME280_humidity;BME280_pressure;Samples;Min_cycle;Max_cycle;Signal;HPM_P1;HPM_P2
2022/08/26 00:02:17;;;;;;;7.07;5.40;;;24.90;58.70;;;;;;5093696;28;20036;-63
2022/08/26 00:04:43;;;;;;;8.30;5.55;;;24.80;58.70;;;;;;5093860;28;20569;-63
2022/08/26 00:07:08;;;;;;;9.23;5.60;;;24.90;58.80;;;;;;5093039;28;20511;-63
2022/08/26 00:09:34;;;;;;;9.48;5.15;;;24.80;58.80;;;;;;5093502;28;20560;-62
2022/08/26 00:11:59;;;;;;;7.32;5.05;;;24.80;58.90;;;;;;5092727;28;20044;-63
2022/08/26 00:14:25;;;;;;;7.97;5.60;;;24.80;59.00;;;;;;5092081;28;20032;-63
2022/08/26 00:16:50;;;;;;;7.80;5.60;;;24.80;59.10;;;;;;5093685;28;20077;-63
2022/08/26 00:19:17;;;;;;;8.55;5.78;;;24.80;59.20;;;;;;5092021;28;20480;-63
2022/08/26 00:21:43;;;;;;;7.22;5.22;;;24.90;59.40;;;;;;5092933;28;20044;-63
2022/08/26 00:24:08;;;;;;;10.18;5.90;;;24.90;59.40;;;;;;5093765;28;20040;-63
2022/08/26 00:26:34;;;;;;;7.72;5.30;;;24.80;59.40;;;;;;5093465;28;20043;-62
2022/08/26 00:28:59;;;;;;;10.20;5.72;;;24.80;59.40;;;;;;5092747;28;20071;-62
2022/08/26 00:31:25;;;;;;;9.75;5.70;;;24.90;59.60;;;;;;5093167;28;20093;-63
2022/08/26 00:33:50;;;;;;;9.15;5.95;;;24.90;59.70;;;;;;5093115;28;20071;-62
2022/08/26 00:36:16;;;;;;;11.30;6.07;;;24.80;59.60;;;;;;5092468;28;20131;-62
2022/08/26 00:38:42;;;;;;;8.80;6.18;;;24.80;59.70;;;;;;5092945;28;20138;-62
2022/08/26 00:41:07;;;;;;;8.65;6.00;;;24.80;59.80;;;;;;5093514;28;20479;-61
2022/08/26 00:43:34;;;;;;;8.85;6.10;;;24.80;59.80;;;;;;5092494;28;20800;-62
2022/08/26 00:46:08;;;;;;;9.40;6.28;;;24.80;59.90;;;;;;5092104;28;20039;-62
2022/08/26 00:48:34;;;;;;;9.38;5.88;;;24.90;60.10;;;;;;5092021;28;20048;-63
2022/08/26 00:51:04;;;;;;;9.32;6.35;;;24.80;60.00;;;;;;5091859;28;20051;-63
2022/08/26 00:53:31;;;;;;;9.25;6.15;;;24.80;60.00;;;;;;5091728;28;20053;-63
2022/08/26 00:56:01;;;;;;;9.20;6.40;;;24.80;60.10;;;;;;5091020;28;20079;-64
2022/08/26 00:58:28;;;;;;;9.07;6.13;;;24.80;60.20;;;;;;5091639;28;20036;-64
2022/08/26 01:00:53;;;;;;;9.07;6.15;;;24.80;60.20;;;;;;5091965;28;20101;-64
2022/08/26 01:03:21;;;;;;;9.20;6.22;;;24.80;60.20;;;;;;5090948;28;20044;-64
2022/08/26 01:05:47;;;;;;;8.38;5.95;;;24.80;60.30;;;;;;5091767;28;20122;-64
2022/08/26 01:08:12;;;;;;;8.60;6.32;;;24.80;60.30;;;;;;5091404;28;20533;-64
2022/08/26 01:10:38;;;;;;;10.23;6.75;;;24.80;60.30;;;;;;5091738;28;20052;-64
2022/08/26 01:13:05;;;;;;;9.48;6.78;;;24.80;60.30;;;;;;5108481;28;20088;-64
2022/08/26 01:15:33;;;;;;;11.07;7.00;;;24.80;60.40;;;;;;5091586;28;20055;-64
2022/08/26 01:17:58;;;;;;;10.45;6.75;;;24.80;60.50;;;;;;5090419;28;20040;-64
2022/08/26 01:20:45;;;;;;;9.25;7.10;;;24.80;60.50;;;;;;5090879;28;20127;-64
2022/08/26 01:23:11;;;;;;;13.33;6.53;;;24.80;60.50;;;;;;5092964;28;20048;-64
2022/08/26 01:25:38;;;;;;;8.38;6.30;;;24.80;60.60;;;;;;5091505;28;20040;-64
2022/08/26 01:28:07;;;;;;;10.80;6.70;;;24.80;60.60;;;;;;5074786;28;20044;-65
2022/08/26 01:30:33;;;;;;;9.88;7.05;;;24.80;60.60;;;;;;5074055;28;20036;-65
2022/08/26 01:33:00;;;;;;;9.18;6.90;;;24.80;60.70;;;;;;5090818;28;20060;-64
2022/08/26 01:35:26;;;;;;;11.40;7.07;;;24.80;60.70;;;;;;5091282;28;20043;-64
2022/08/26 01:37:52;;;;;;;10.70;7.40;;;24.80;60.80;;;;;;5090515;28;20155;-65
2022/08/26 01:40:21;;;;;;;9.25;6.68;;;24.80;60.80;;;;;;5091190;28;20056;-65
2022/08/26 01:42:47;;;;;;;10.85;7.57;;;24.80;60.80;;;;;;5058257;28;20082;-65
2022/08/26 01:45:17;;;;;;;9.82;7.07;;;24.80;60.80;;;;;;5091539;28;20490;-65
2022/08/26 01:47:42;;;;;;;10.40;7.03;;;24.80;60.90;;;;;;5074571;28;20567;-64
2022/08/26 01:50:14;;;;;;;9.93;6.32;;;24.80;60.90;;;;;;5091455;28;20115;-65
2022/08/26 01:52:41;;;;;;;9.27;6.90;;;24.70;60.90;;;;;;5090488;28;20491;-64
2022/08/26 01:55:07;;;;;;;9.57;6.82;;;24.80;61.00;;;;;;5074552;28;20048;-65
2022/08/26 01:57:33;;;;;;;11.05;7.75;;;24.70;61.00;;;;;;5092203;28;20360;-65
2022/08/26 01:59:59;;;;;;;8.68;6.85;;;24.70;61.00;;;;;;5091510;28;20052;-65
2022/08/26 02:02:25;;;;;;;9.57;7.30;;;24.70;61.10;;;;;;5072429;28;20052;-65
2022/08/26 02:04:58;;;;;;;8.25;6.75;;;24.70;61.10;;;;;;5056844;28;20048;-65
2022/08/26 02:07:24;;;;;;;8.82;7.35;;;24.80;61.20;;;;;;5073083;28;20115;-64
2022/08/26 02:09:49;;;;;;;9.43;7.47;;;24.70;61.20;;;;;;5092492;28;20122;-65
2022/08/26 02:12:17;;;;;;;11.38;6.82;;;24.70;61.30;;;;;;5092179;28;20056;-65
2022/08/26 02:14:49;;;;;;;9.93;7.33;;;24.70;61.40;;;;;;5091311;28;20044;-64
2022/08/26 02:17:15;;;;;;;12.43;7.75;;;24.70;61.40;;;;;;5074451;28;20363;-65
2022/08/26 02:19:41;;;;;;;10.82;7.50;;;24.70;61.50;;;;;;5074177;28;20119;-65
2022/08/26 02:22:10;;;;;;;8.55;7.35;;;24.70;61.50;;;;;;5090230;28;20127;-65
2022/08/26 02:24:50;;;;;;;10.43;7.85;;;24.70;61.60;;;;;;5057323;28;20495;-65
2022/08/26 02:27:17;;;;;;;9.95;7.60;;;24.70;61.60;;;;;;5091083;28;20048;-65
2022/08/26 02:29:44;;;;;;;14.35;7.65;;;24.70;61.80;;;;;;5090983;28;20052;-65
2022/08/26 02:32:10;;;;;;;13.25;8.32;;;24.70;61.80;;;;;;5091993;28;20094;-65
2022/08/26 02:34:37;;;;;;;10.25;8.13;;;24.70;61.90;;;;;;5091316;28;20054;-65
2022/08/26 02:37:05;;;;;;;12.55;8.43;;;24.70;62.10;;;;;;5091958;28;20047;-65
2022/08/26 02:39:31;;;;;;;13.10;8.15;;;24.70;62.10;;;;;;5095368;28;20040;-65
2022/08/26 02:41:56;;;;;;;10.48;7.85;;;24.70;62.10;;;;;;5094762;28;20112;-65
2022/08/26 02:44:22;;;;;;;11.45;8.25;;;24.70;62.20;;;;;;5095553;28;20047;-65
2022/08/26 02:46:48;;;;;;;10.68;8.20;;;24.70;62.20;;;;;;5095694;28;20121;-65
2022/08/26 02:49:15;;;;;;;10.30;8.07;;;24.70;62.30;;;;;;5094623;28;20127;-65
2022/08/26 02:51:40;;;;;;;11.68;8.65;;;24.70;62.40;;;;;;5095455;28;20052;-65
2022/08/26 02:54:06;;;;;;;12.95;8.82;;;24.70;62.40;;;;;;5095494;28;20102;-65
2022/08/26 02:56:32;;;;;;;13.55;8.85;;;24.70;62.50;;;;;;5094146;28;20140;-65
2022/08/26 02:58:58;;;;;;;12.05;8.68;;;24.70;62.50;;;;;;5095429;28;20048;-65
2022/08/26 03:01:28;;;;;;;13.00;8.55;;;24.70;62.60;;;;;;5093819;28;20040;-65
2022/08/26 03:03:54;;;;;;;14.38;8.85;;;24.70;62.80;;;;;;5094275;28;20067;-65
2022/08/26 03:06:20;;;;;;;12.93;8.93;;;24.70;62.80;;;;;;5094894;28;20067;-65
2022/08/26 03:08:45;;;;;;;12.95;9.73;;;24.60;62.80;;;;;;5093786;28;20055;-65
2022/08/26 03:11:11;;;;;;;12.13;8.48;;;24.70;62.90;;;;;;5094285;28;20071;-65
2022/08/26 03:13:37;;;;;;;13.90;9.30;;;24.70;63.00;;;;;;5094998;28;20538;-65
2022/08/26 03:16:03;;;;;;;13.80;9.75;;;24.70;63.10;;;;;;5093009;28;20040;-65
2022/08/26 03:18:28;;;;;;;13.02;9.70;;;24.60;63.10;;;;;;5094605;28;20101;-65
2022/08/26 03:20:54;;;;;;;14.75;9.50;;;24.70;63.20;;;;;;5094976;28;20036;-65
2022/08/26 03:23:19;;;;;;;11.90;9.85;;;24.70;63.30;;;;;;5093484;28;20048;-65
2022/08/26 03:25:49;;;;;;;16.40;10.13;;;24.70;63.40;;;;;;5093513;28;20040;-65
2022/08/26 03:28:15;;;;;;;11.73;9.63;;;24.60;63.40;;;;;;5094689;28;20048;-65
2022/08/26 03:30:40;;;;;;;14.43;10.02;;;24.60;63.40;;;;;;5094269;28;20032;-65
2022/08/26 03:33:07;;;;;;;14.07;10.23;;;24.60;63.50;;;;;;5094287;28;20456;-65
2022/08/26 03:35:32;;;;;;;16.08;9.25;;;24.60;63.60;;;;;;5094383;28;20479;-65
2022/08/26 03:37:58;;;;;;;13.20;9.65;;;24.60;63.70;;;;;;5093617;28;20051;-65
2022/08/26 03:40:24;;;;;;;17.10;10.32;;;24.60;63.70;;;;;;5093851;28;20069;-65
2022/08/26 03:42:49;;;;;;;14.85;10.02;;;24.60;63.80;;;;;;5094745;28;20105;-65
2022/08/26 03:45:15;;;;;;;13.63;9.77;;;24.60;63.80;;;;;;5093587;28;20476;-65
2022/08/26 03:47:41;;;;;;;14.40;9.98;;;24.60;63.90;;;;;;5094505;28;20082;-65
2022/08/26 03:50:08;;;;;;;13.27;10.00;;;24.60;64.00;;;;;;5094226;28;20044;-65
2022/08/26 03:52:34;;;;;;;14.43;9.63;;;24.60;64.00;;;;;;5093152;28;20044;-65
2022/08/26 03:55:00;;;;;;;14.45;10.50;;;24.60;64.10;;;;;;5094038;28;20085;-65
2022/08/26 03:57:25;;;;;;;12.77;10.20;;;24.60;64.10;;;;;;5093658;28;20126;-65
2022/08/26 03:59:51;;;;;;;13.65;10.10;;;24.60;64.20;;;;;;5093527;28;20119;-65
2022/08/26 04:02:16;;;;;;;15.35;9.88;;;24.60;64.30;;;;;;5093539;28;20055;-65
2022/08/26 04:04:42;;;;;;;14.38;9.98;;;24.60;64.30;;;;;;5093851;28;20052;-65
2022/08/26 04:07:07;;;;;;;16.00;10.75;;;24.60;64.30;;;;;;5092338;28;20048;-65
2022/08/26 04:09:33;;;;;;;17.92;10.80;;;24.60;64.40;;;;;;5093658;28;20523;-65
2022/08/26 04:11:59;;;;;;;15.60;10.90;;;24.60;64.40;;;;;;5094198;28;20048;-65
2022/08/26 04:14:25;;;;;;;14.48;10.15;;;24.60;64.50;;;;;;5092718;28;20040;-65
2022/08/26 04:16:51;;;;;;;14.23;10.20;;;24.60;64.50;;;;;;5092627;28;20048;-65
2022/08/26 04:19:17;;;;;;;15.07;10.85;;;24.60;64.50;;;;;;5091844;28;20403;-65
2022/08/26 04:21:43;;;;;;;13.68;10.30;;;24.60;64.60;;;;;;5093591;28;20047;-65
2022/08/26 04:24:10;;;;;;;14.10;10.43;;;24.60;64.60;;;;;;5093757;28;20036;-65
2022/08/26 04:26:36;;;;;;;13.57;10.30;;;24.60;64.70;;;;;;5092868;28;20040;-65
2022/08/26 04:29:07;;;;;;;13.18;9.85;;;24.50;64.60;;;;;;5093617;28;20055;-65
2022/08/26 04:31:34;;;;;;;14.20;10.40;;;24.60;64.70;;;;;;5093087;28;20036;-66
2022/08/26 04:33:59;;;;;;;14.32;9.88;;;24.60;64.80;;;;;;5093042;28;20535;-65
2022/08/26 04:36:25;;;;;;;13.27;10.50;;;24.50;64.70;;;;;;5093013;28;20123;-66
2022/08/26 04:38:50;;;;;;;16.42;10.68;;;24.60;64.80;;;;;;5093183;28;20125;-65
2022/08/26 04:41:17;;;;;;;14.35;10.80;;;24.50;64.80;;;;;;5092371;28;20430;-66
2022/08/26 04:43:43;;;;;;;15.18;11.57;;;24.50;64.80;;;;;;5092191;28;20044;-65
2022/08/26 04:46:10;;;;;;;11.98;10.43;;;24.60;64.90;;;;;;5093244;28;20055;-66
2022/08/26 04:48:36;;;;;;;15.50;10.90;;;24.60;65.00;;;;;;5091967;28;20040;-65
2022/08/26 04:51:01;;;;;;;15.57;10.13;;;24.50;65.00;;;;;;5092966;28;20127;-66
2022/08/26 04:53:27;;;;;;;15.40;10.80;;;24.60;65.00;;;;;;5093005;28;20063;-66
2022/08/26 04:55:53;;;;;;;16.10;10.80;;;24.50;65.00;;;;;;5092263;28;20044;-66
2022/08/26 04:58:19;;;;;;;15.43;10.73;;;24.60;65.00;;;;;;5092966;28;20072;-65
2022/08/26 05:00:46;;;;;;;13.63;10.48;;;24.60;65.00;;;;;;5092644;28;20498;-65
2022/08/26 05:03:12;;;;;;;14.23;10.65;;;24.50;65.00;;;;;;5092128;28;20044;-66
2022/08/26 05:05:41;;;;;;;13.73;10.73;;;24.50;65.00;;;;;;5092429;28;20044;-66
2022/08/26 05:08:08;;;;;;;11.98;10.13;;;24.50;65.00;;;;;;5093183;28;20044;-65
2022/08/26 05:10:33;;;;;;;13.70;10.45;;;24.60;65.10;;;;;;5091820;28;20798;-65
2022/08/26 05:12:59;;;;;;;14.43;10.55;;;24.60;65.20;;;;;;5091503;28;20174;-66
2022/08/26 05:15:25;;;;;;;14.88;10.80;;;24.60;65.10;;;;;;5092547;28;20478;-65
2022/08/26 05:17:50;;;;;;;15.27;10.70;;;24.60;65.20;;;;;;5092079;28;20101;-65
2022/08/26 05:20:16;;;;;;;12.98;9.80;;;24.50;65.10;;;;;;5092557;28;20395;-65
2022/08/26 05:22:42;;;;;;;13.85;10.57;;;24.50;65.20;;;;;;5125092;27;20197;-65
2022/08/26 05:25:07;;;;;;;15.05;10.57;;;24.50;65.20;;;;;;5093020;28;20044;-66
2022/08/26 05:27:33;;;;;;;13.77;10.32;;;24.50;65.20;;;;;;5092512;28;20991;-66
2022/08/26 05:29:58;;;;;;;13.85;10.20;;;24.50;65.20;;;;;;5091962;28;20044;-66
2022/08/26 05:32:24;;;;;;;14.77;10.68;;;24.50;65.30;;;;;;5092113;28;20048;-66
2022/08/26 05:34:54;;;;;;;13.45;10.95;;;24.50;65.30;;;;;;5092633;28;20487;-66
2022/08/26 05:37:20;;;;;;;14.85;10.55;;;24.50;65.30;;;;;;5090308;28;20056;-66
2022/08/26 05:39:45;;;;;;;12.65;10.30;;;24.50;65.40;;;;;;5092612;28;20050;-66
2022/08/26 05:42:11;;;;;;;15.73;10.68;;;24.50;65.40;;;;;;5092491;28;20396;-66
2022/08/26 05:44:36;;;;;;;15.18;10.43;;;24.50;65.40;;;;;;5091395;28;20090;-66
2022/08/26 05:47:02;;;;;;;13.88;10.70;;;24.50;65.50;;;;;;5091255;28;20048;-66
2022/08/26 05:49:28;;;;;;;11.98;9.98;;;24.50;65.50;;;;;;5092207;28;20058;-66
2022/08/26 05:51:53;;;;;;;13.50;10.07;;;24.50;65.50;;;;;;5091747;28;20036;-66
2022/08/26 05:54:19;;;;;;;15.55;10.90;;;24.50;65.50;;;;;;5091849;28;20051;-66
2022/08/26 05:56:45;;;;;;;15.30;9.95;;;24.50;65.50;;;;;;5090685;28;20051;-66
2022/08/26 05:59:14;;;;;;;14.13;10.38;;;24.50;65.50;;;;;;5090076;28;20475;-66
2022/08/26 06:01:39;;;;;;;13.15;10.27;;;24.50;65.50;;;;;;5092194;28;20570;-66
2022/08/26 06:04:06;;;;;;;16.88;10.55;;;24.50;65.50;;;;;;5092443;28;20075;-66
2022/08/26 06:06:33;;;;;;;22.88;11.93;;;24.50;65.60;;;;;;5091479;28;20123;-66
2022/08/26 06:09:00;;;;;;;18.25;11.95;;;24.50;65.80;;;;;;5091301;28;20101;-67
2022/08/26 06:11:26;;;;;;;21.95;12.45;;;24.50;66.10;;;;;;5089564;28;20048;-65
2022/08/26 06:13:52;;;;;;;21.38;13.38;;;24.50;66.40;;;;;;5094086;28;20043;-65
2022/08/26 06:16:19;;;;;;;20.23;12.75;;;24.40;66.70;;;;;;5128701;27;20055;-65
2022/08/26 06:18:45;;;;;;;22.33;13.10;;;24.40;67.10;;;;;;5096117;28;20054;-65
2022/08/26 06:21:15;;;;;;;20.45;12.70;;;24.30;67.20;;;;;;5095328;28;20047;-66
2022/08/26 06:26:25;;;;;;;19.92;12.35;;;24.30;67.30;;;;;;5092828;28;20048;-66
2022/08/26 06:28:50;;;;;;;19.33;11.75;;;24.30;67.30;;;;;;5094543;28;20048;-65
2022/08/26 06:31:16;;;;;;;25.77;11.98;;;24.30;67.60;;;;;;5095747;28;20093;-65
2022/08/26 06:33:42;;;;;;;22.60;12.35;;;24.30;67.50;;;;;;5094752;28;20071;-65
2022/08/26 06:36:08;;;;;;;21.48;12.10;;;24.30;67.60;;;;;;5095871;28;20048;-64
2022/08/26 06:38:33;;;;;;;18.73;11.50;;;24.30;67.60;;;;;;5095360;28;20072;-65
2022/08/26 06:40:59;;;;;;;22.50;11.20;;;24.30;67.70;;;;;;5095218;28;20090;-64
2022/08/26 06:43:26;;;;;;;21.45;11.60;;;24.20;67.70;;;;;;5094311;28;20040;-65
2022/08/26 06:45:58;;;;;;;21.75;12.30;;;24.20;67.80;;;;;;5095793;28;20044;-64
2022/08/26 06:48:23;;;;;;;19.55;12.18;;;24.20;67.90;;;;;;5093466;28;20093;-64
2022/08/26 06:50:49;;;;;;;19.33;12.35;;;24.20;67.90;;;;;;5095720;28;20048;-65
2022/08/26 06:53:15;;;;;;;22.25;12.65;;;24.20;68.00;;;;;;5095430;28;20046;-65
2022/08/26 06:55:44;;;;;;;20.23;11.80;;;24.20;68.10;;;;;;5094557;28;20128;-65
2022/08/26 06:58:10;;;;;;;26.90;11.68;;;24.20;68.20;;;;;;5094592;28;20163;-64
2022/08/26 07:00:37;;;;;;;19.60;11.48;;;24.20;68.20;;;;;;5095005;28;20074;-64
2022/08/26 07:03:03;;;;;;;18.42;10.90;;;24.20;68.20;;;;;;5094511;28;20119;-64
2022/08/26 07:05:28;;;;;;;20.77;10.93;;;24.20;68.20;;;;;;5095012;28;20055;-64
2022/08/26 07:07:56;;;;;;;17.55;11.18;;;24.30;68.20;;;;;;5095463;28;20032;-64
2022/08/26 07:10:22;;;;;;;16.55;10.60;;;24.20;68.10;;;;;;5094128;28;20123;-64
2022/08/26 07:12:48;;;;;;;17.40;10.50;;;24.30;68.10;;;;;;5095039;28;20128;-64
2022/08/26 07:15:13;;;;;;;16.10;10.85;;;24.30;68.10;;;;;;5094089;28;20056;-64
2022/08/26 07:17:39;;;;;;;19.58;11.07;;;24.30;68.20;;;;;;5095090;28;20407;-65
2022/08/26 07:20:07;;;;;;;18.67;9.80;;;24.30;68.20;;;;;;5095242;28;20048;-64
2022/08/26 07:22:32;;;;;;;14.05;9.65;;;24.30;68.10;;;;;;5093772;28;20074;-64
2022/08/26 07:24:58;;;;;;;16.73;10.15;;;24.30;68.00;;;;;;5094038;28;20072;-65
2022/08/26 07:27:23;;;;;;;18.05;9.13;;;24.30;68.00;;;;;;5094036;28;20044;-65
2022/08/26 07:29:49;;;;;;;13.70;8.73;;;24.30;68.00;;;;;;5093815;28;20395;-65
2022/08/26 07:32:15;;;;;;;17.25;9.07;;;24.30;68.00;;;;;;5093052;28;20048;-64
2022/08/26 07:34:41;;;;;;;15.88;8.82;;;24.30;68.30;;;;;;5093753;28;20686;-64
2022/08/26 07:37:07;;;;;;;16.83;8.55;;;24.30;68.20;;;;;;5092090;28;20036;-64
2022/08/26 07:39:32;;;;;;;18.15;8.50;;;24.30;68.20;;;;;;5093705;28;20120;-64
2022/08/26 07:42:00;;;;;;;16.73;8.73;;;24.30;68.30;;;;;;5093485;28;20047;-65
2022/08/26 07:44:26;;;;;;;14.60;8.38;;;24.30;68.30;;;;;;5093354;28;20123;-64
2022/08/26 07:46:51;;;;;;;16.63;8.68;;;24.30;68.20;;;;;;5094260;28;20079;-63
2022/08/26 07:49:18;;;;;;;15.00;7.90;;;24.30;68.10;;;;;;5094459;28;20051;-64
2022/08/26 07:51:43;;;;;;;13.52;7.95;;;24.30;68.00;;;;;;5093822;28;20032;-66
2022/08/26 07:54:09;;;;;;;16.10;7.90;;;24.30;68.00;;;;;;5094443;28;20051;-66
2022/08/26 07:56:34;;;;;;;13.43;7.72;;;24.30;68.00;;;;;;5094222;28;20491;-66
2022/08/26 07:59:00;;;;;;;15.90;7.45;;;24.30;68.00;;;;;;5093408;28;20445;-66
2022/08/26 08:01:26;;;;;;;15.80;8.18;;;24.30;68.10;;;;;;5093733;28;20044;-65
2022/08/26 08:03:52;;;;;;;17.95;8.10;;;24.30;68.20;;;;;;5092954;28;20135;-66
2022/08/26 08:06:19;;;;;;;15.40;6.90;;;24.30;68.20;;;;;;5093151;28;20487;-66
2022/08/26 08:08:45;;;;;;;15.32;8.07;;;24.30;68.20;;;;;;5092771;28;20044;-66
2022/08/26 08:11:10;;;;;;;16.27;6.95;;;24.30;68.20;;;;;;5094005;28;20055;-66
2022/08/26 08:13:36;;;;;;;13.20;6.88;;;24.30;68.20;;;;;;5093168;28;20391;-66
2022/08/26 08:16:02;;;;;;;11.00;6.57;;;24.30;68.40;;;;;;5093987;28;20046;-66
2022/08/26 08:18:28;;;;;;;17.13;7.20;;;24.40;68.40;;;;;;5092584;28;20044;-66
2022/08/26 08:20:54;;;;;;;12.70;6.72;;;24.40;68.30;;;;;;5091048;28;20043;-66
2022/08/26 08:23:19;;;;;;;13.00;6.22;;;24.40;68.30;;;;;;5073374;28;20036;-66
2022/08/26 08:25:45;;;;;;;15.68;6.88;;;24.40;68.30;;;;;;5072590;28;20106;-66
2022/08/26 08:28:10;;;;;;;12.65;6.25;;;24.40;68.20;;;;;;5090007;28;20040;-65
2022/08/26 08:30:38;;;;;;;12.98;6.63;;;24.40;68.20;;;;;;5091951;28;20052;-66
2022/08/26 08:33:03;;;;;;;19.50;7.07;;;24.30;68.20;;;;;;5092411;28;20056;-66
2022/08/26 08:35:29;;;;;;;13.15;5.60;;;24.40;68.20;;;;;;5091909;28;20305;-66
2022/08/26 08:37:55;;;;;;;12.57;6.53;;;24.40;68.20;;;;;;5093398;28;20120;-66
2022/08/26 08:40:22;;;;;;;11.43;5.80;;;24.40;68.30;;;;;;5092267;28;20170;-66
2022/08/26 08:43:18;;;;;;;14.30;6.25;;;24.40;68.30;;;;;;5075766;28;20044;-66
2022/08/26 08:45:49;;;;;;;16.60;6.40;;;24.40;68.20;;;;;;5091598;28;20499;-66
2022/08/26 08:48:19;;;;;;;15.88;5.82;;;24.40;68.20;;;;;;5090944;28;20047;-66
2022/08/26 08:50:49;;;;;;;12.45;5.63;;;24.40;68.30;;;;;;5092834;28;20477;-65
2022/08/26 08:53:21;;;;;;;10.65;5.82;;;24.40;68.40;;;;;;5075786;28;20044;-65
2022/08/26 08:55:47;;;;;;;12.30;5.60;;;24.50;68.40;;;;;;5092647;28;20051;-66
2022/08/26 08:58:16;;;;;;;10.65;5.50;;;24.50;68.30;;;;;;5080437;28;20143;-65
2022/08/26 09:00:50;;;;;;;13.25;5.30;;;24.50;68.30;;;;;;5070956;28;20045;-65
2022/08/26 09:03:25;;;;;;;13.43;5.80;;;24.50;68.20;;;;;;5071048;28;20504;-66
2022/08/26 09:05:51;;;;;;;13.85;6.00;;;24.50;69.00;;;;;;5071627;28;20056;-65
2022/08/26 09:08:22;;;;;;;10.07;5.03;;;24.50;68.40;;;;;;5071540;28;20086;-65
2022/08/26 09:10:55;;;;;;;12.25;5.03;;;24.50;68.30;;;;;;5071656;28;20052;-65
2022/08/26 09:13:22;;;;;;;11.68;5.28;;;24.50;68.30;;;;;;5082812;28;20492;-65
2022/08/26 09:15:55;;;;;;;10.38;5.47;;;24.50;68.30;;;;;;5091522;28;20506;-64
2022/08/26 09:18:34;;;;;;;12.52;5.25;;;24.50;68.40;;;;;;5072643;28;20120;-65
2022/08/26 09:21:06;;;;;;;11.93;5.43;;;24.50;68.50;;;;;;5091528;28;20087;-64
2022/08/26 09:23:34;;;;;;;12.30;5.22;;;24.50;68.80;;;;;;5090668;28;20070;-59
2022/08/26 09:26:01;;;;;;;13.55;5.95;;;24.50;69.20;;;;;;5088771;28;20048;-59
2022/08/26 09:28:28;;;;;;;12.20;5.43;;;24.50;68.30;;;;;;5091704;28;20055;-59
2022/08/26 09:31:09;;;;;;;12.85;5.10;;;24.50;68.20;;;;;;5091922;28;20067;-60
2022/08/26 09:33:34;;;;;;;11.13;5.40;;;24.50;68.10;;;;;;5093815;28;20590;-59
2022/08/26 09:36:14;;;;;;;9.93;4.90;;;24.50;68.10;;;;;;5081442;28;20123;-75
2022/08/26 09:38:40;;;;;;;12.02;4.07;;;24.50;68.10;;;;;;5072169;28;20044;-57
2022/08/26 09:41:18;;;;;;;11.32;5.30;;;24.50;67.90;;;;;;5072522;28;20044;-56
2022/08/26 09:44:08;;;;;;;11.20;4.90;;;24.50;67.70;;;;;;5070670;28;20075;-56
2022/08/26 09:46:33;;;;;;;12.13;4.40;;;24.50;67.80;;;;;;5069135;28;20063;-56
2022/08/26 09:49:22;;;;;;;10.43;4.65;;;24.50;67.80;;;;;;5076227;28;20040;-57
2022/08/26 09:51:48;;;;;;;10.52;4.47;;;24.50;68.00;;;;;;5074809;28;20044;-57
2022/08/26 09:54:23;;;;;;;14.57;4.50;;;24.40;68.10;;;;;;5074902;28;20097;-56
2022/08/26 09:56:49;;;;;;;9.05;3.97;;;24.50;68.10;;;;;;5076602;28;20041;-66
2022/08/26 09:59:27;;;;;;;10.73;4.43;;;24.40;68.20;;;;;;5074995;28;20052;-77
2022/08/26 10:01:53;;;;;;;9.93;4.30;;;24.50;68.20;;;;;;5075404;28;20127;-56
2022/08/26 10:04:21;;;;;;;11.23;4.97;;;24.40;68.00;;;;;;5074103;28;20054;-69
2022/08/26 10:06:57;;;;;;;9.25;3.92;;;24.40;67.90;;;;;;5058404;28;20399;-56
2022/08/26 10:09:22;;;;;;;7.78;3.42;;;24.40;67.90;;;;;;5074423;28;20082;-56
2022/08/26 10:11:52;;;;;;;11.10;3.13;;;24.40;67.80;;;;;;5074295;28;20072;-57
2022/08/26 10:14:25;;;;;;;7.57;2.90;;;24.40;67.80;;;;;;5076306;28;20047;-56
2022/08/26 10:17:07;;;;;;;11.82;3.53;;;24.40;67.90;;;;;;5095093;28;20040;-57
2022/08/26 10:19:53;;;;;;;7.20;2.97;;;24.30;67.90;;;;;;5094807;28;20047;-57
2022/08/26 10:22:44;;;;;;;8.82;3.33;;;24.30;68.00;;;;;;5077534;28;20377;-57
2022/08/26 10:25:16;;;;;;;6.20;2.85;;;24.30;68.00;;;;;;5074296;28;20036;-57
2022/08/26 10:28:05;;;;;;;9.45;2.55;;;24.40;68.10;;;;;;5074381;28;20059;-57
2022/08/26 10:30:36;;;;;;;10.57;2.80;;;24.40;68.00;;;;;;5059649;28;20606;-57
2022/08/26 10:33:13;;;;;;;9.23;2.40;;;24.40;67.90;;;;;;5074553;28;20504;-58
2022/08/26 10:36:00;;;;;;;10.37;2.60;;;24.40;67.80;;;;;;5088394;28;20056;-57
2022/08/26 10:38:33;;;;;;;11.70;2.50;;;24.40;67.70;;;;;;5095238;28;20480;-57
2022/08/26 10:41:06;;;;;;;7.00;2.03;;;24.40;67.90;;;;;;5094512;28;20043;-57
2022/08/26 10:43:54;;;;;;;12.77;2.40;;;24.40;68.00;;;;;;5093564;28;20399;-57
2022/08/26 10:46:22;;;;;;;6.60;1.88;;;24.40;68.10;;;;;;5093470;28;20044;-57
2022/08/26 10:49:00;;;;;;;7.28;2.20;;;24.40;68.10;;;;;;5095573;28;20494;-57
2022/08/26 10:51:27;;;;;;;;;;;24.40;68.10;;;;;;5094304;28;20508;-57
2022/08/26 10:53:57;;;;;;;8.90;2.45;;;24.40;68.00;;;;;;5094898;28;19982;-59
2022/08/26 10:56:51;;;;;;;9.10;2.20;;;24.50;68.10;;;;;;5093947;28;20399;-57
2022/08/26 10:59:26;;;;;;;7.90;2.28;;;24.50;68.10;;;;;;5093598;28;20055;-57
2022/08/26 11:01:59;;;;;;;11.43;2.58;;;24.50;68.10;;;;;;5093141;28;20125;-57
2022/08/26 11:04:54;;;;;;;7.78;2.30;;;24.50;68.20;;;;;;5095160;28;20487;-57
2022/08/26 11:07:44;;;;;;;10.68;2.35;;;24.50;68.20;;;;;;5092975;28;20411;-57
2022/08/26 11:10:19;;;;;;;8.27;2.20;;;24.60;68.10;;;;;;5093941;28;20132;-57
2022/08/26 11:12:55;;;;;;;9.43;2.40;;;24.50;68.10;;;;;;5095303;28;20040;-58
2022/08/26 11:15:20;;;;;;;7.25;1.90;;;24.60;68.10;;;;;;5093955;28;20441;-58
2022/08/26 11:17:46;;;;;;;6.00;1.90;;;24.60;68.10;;;;;;5094888;28;20044;-58
2022/08/26 11:20:32;;;;;;;4.95;1.90;;;24.60;68.00;;;;;;5094727;28;20048;-58
2022/08/26 11:23:25;;;;;;;6.70;2.15;;;24.60;68.10;;;;;;5094470;28;20070;-58
2022/08/26 11:25:59;;;;;;;8.20;2.38;;;24.60;68.60;;;;;;5094862;28;20462;-65
2022/08/26 11:28:35;;;;;;;7.00;2.50;;;24.70;68.10;;;;;;5094129;28;20498;-61
2022/08/26 11:31:00;;;;;;;6.88;1.80;;;24.70;68.10;;;;;;5094231;28;20441;-56
2022/08/26 11:33:50;;;;;;;7.32;1.92;;;24.70;68.10;;;;;;5094038;28;20472;-58
2022/08/26 11:36:37;;;;;;;6.47;1.77;;;24.70;68.10;;;;;;5092715;28;20048;-57
2022/08/26 11:39:27;;;;;;;6.30;2.10;;;24.70;68.00;;;;;;5093131;28;20048;-57
2022/08/26 11:41:54;;;;;;;7.72;1.98;;;24.70;68.00;;;;;;5062011;28;20044;-56
2022/08/26 11:44:25;;;;;;;10.20;2.00;;;24.70;68.10;;;;;;5084443;28;20044;-57
2022/08/26 11:46:52;;;;;;;7.13;2.10;;;24.70;68.30;;;;;;5090712;28;20040;-57
2022/08/26 11:49:18;;;;;;;6.05;1.77;;;24.80;68.30;;;;;;5091793;28;20046;-60
2022/08/26 11:51:43;;;;;;;7.95;2.40;;;24.80;68.40;;;;;;5088674;28;20044;-58
2022/08/26 11:54:20;;;;;;;8.93;1.90;;;24.80;68.40;;;;;;5092628;28;20032;-58
2022/08/26 11:56:49;;;;;;;7.68;1.70;;;24.80;68.30;;;;;;5090074;28;20844;-58
2022/08/26 11:59:22;;;;;;;6.38;1.70;;;24.80;68.20;;;;;;5091252;28;20092;-58
2022/08/26 12:01:49;;;;;;;8.85;2.10;;;24.80;68.30;;;;;;5090117;28;20067;-57
2022/08/26 12:04:28;;;;;;;8.90;1.75;;;24.80;68.30;;;;;;5091029;28;20044;-57
2022/08/26 12:06:54;;;;;;;6.60;1.88;;;24.80;68.50;;;;;;5088532;28;20475;-58
2022/08/26 12:09:22;;;;;;;6.53;1.95;;;24.80;68.40;;;;;;5092868;28;20074;-57
2022/08/26 12:11:48;;;;;;;11.52;2.08;;;24.80;68.40;;;;;;5089406;28;20048;-57
2022/08/26 12:14:19;;;;;;;7.55;1.42;;;24.80;68.40;;;;;;5092879;28;20040;-57
2022/08/26 12:16:45;;;;;;;6.60;1.70;;;24.80;68.40;;;;;;5092470;28;20097;-58
2022/08/26 12:19:23;;;;;;;5.30;1.65;;;24.80;68.50;;;;;;5091955;28;20048;-57
2022/08/26 12:21:49;;;;;;;5.70;1.65;;;24.80;68.40;;;;;;5092948;28;20085;-57
2022/08/26 12:24:18;;;;;;;8.70;1.88;;;24.80;68.40;;;;;;5089867;28;20040;-57
2022/08/26 12:26:43;;;;;;;6.75;1.83;;;24.80;68.40;;;;;;5092125;28;20058;-63
2022/08/26 12:29:20;;;;;;;7.65;2.15;;;24.80;68.30;;;;;;5088352;28;20494;-60
2022/08/26 12:31:46;;;;;;;5.40;1.50;;;24.80;68.30;;;;;;5072249;28;20576;-58
2022/08/26 12:34:16;;;;;;;7.32;1.80;;;24.80;68.20;;;;;;5092489;28;20139;-58
2022/08/26 12:36:45;;;;;;;8.15;2.42;;;24.80;68.70;;;;;;5088112;28;20050;-58
2022/08/26 12:39:29;;;;;;;7.25;1.60;;;24.80;68.10;;;;;;5089074;28;20046;-58
2022/08/26 12:41:58;;;;;;;4.40;1.52;;;24.80;68.00;;;;;;5086047;28;20135;-58
2022/08/26 12:44:33;;;;;;;9.00;1.98;;;24.80;68.00;;;;;;5083054;28;20036;-58
2022/08/26 12:47:07;;;;;;;7.80;1.90;;;24.90;67.90;;;;;;5092488;28;20115;-58
2022/08/26 12:49:34;;;;;;;7.65;1.77;;;24.90;67.80;;;;;;5091707;28;20047;-58